Time;durP1;ratioP1;P1;durP2;ratioP2;P2;SDS_P1;SDS_P2;PMS_P1;PMS_P2;Temp;Humidity;BMP_temperature;BMP_pressure;BME280_temperature;BME280_humidity;BME280_pressure;Samples;Min_cycle;Max_cycle;Signal;HPM_P1;HPM_P2
2024/02/18 00:01:39;;;;;;;9.03;8.13;;;8.20;99.90;;;;;;5022951;28;20417;-81
2024/02/18 00:04:05;;;;;;;9.60;7.90;;;8.30;99.90;;;;;;5038365;28;20386;-81
2024/02/18 00:06:30;;;;;;;9.30;8.30;;;8.20;99.90;;;;;;5040759;28;20394;-80
2024/02/18 00:08:56;;;;;;;9.03;8.13;;;8.20;99.90;;;;;;5037982;28;20781;-81
2024/02/18 00:11:21;;;;;;;9.80;8.80;;;8.10;99.90;;;;;;5058197;28;20439;-81
2024/02/18 00:13:47;;;;;;;11.07;8.60;;;8.00;99.90;;;;;;5057206;28;20478;-80
2024/02/18 00:16:12;;;;;;;11.13;8.40;;;7.90;99.90;;;;;;5037983;28;20405;-80
2024/02/18 00:18:38;;;;;;;9.17;8.27;;;7.80;99.90;;;;;;5058060;28;20393;-81
2024/02/18 00:21:04;;;;;;;9.87;7.70;;;7.90;99.90;;;;;;5058176;28;20464;-80
2024/02/18 00:23:29;;;;;;;9.60;8.60;;;7.80;99.90;;;;;;5039456;28;20489;-81
2024/02/18 00:25:55;;;;;;;10.87;8.37;;;7.60;99.90;;;;;;5049127;28;20390;-82
2024/02/18 00:28:21;;;;;;;9.43;8.25;;;7.70;99.90;;;;;;5020871;28;20394;-81
2024/02/18 00:30:50;;;;;;;9.10;8.20;;;7.70;99.90;;;;;;5021158;28;20400;-81
2024/02/18 00:33:19;;;;;;;8.60;7.70;;;7.60;99.90;;;;;;5039288;28;20391;-82
2024/02/18 00:35:45;;;;;;;10.25;8.30;;;7.70;99.90;;;;;;5021563;28;20431;-82
2024/02/18 00:38:10;;;;;;;10.07;7.90;;;7.60;99.90;;;;;;5026922;28;20405;-82
2024/02/18 00:40:36;;;;;;;9.60;8.18;;;7.50;99.90;;;;;;5056375;28;20400;-81
2024/02/18 00:43:02;;;;;;;9.90;8.30;;;7.60;99.90;;;;;;5039989;28;20492;-81
2024/02/18 00:45:27;;;;;;;11.02;8.15;;;7.60;99.90;;;;;;5020718;28;20395;-82
2024/02/18 00:47:53;;;;;;;9.05;8.15;;;7.60;99.90;;;;;;5037733;28;20391;-82
2024/02/18 00:50:18;;;;;;;8.80;8.00;;;7.60;99.90;;;;;;5022695;28;20379;-83
2024/02/18 00:52:44;;;;;;;9.10;8.20;;;7.50;99.90;;;;;;5033635;28;20399;-82
2024/02/18 00:55:09;;;;;;;8.70;7.80;;;7.40;99.90;;;;;;5039903;28;20576;-83
2024/02/18 00:57:35;;;;;;;12.68;8.52;;;7.40;99.90;;;;;;5039812;28;20383;-80
2024/02/18 01:00:01;;;;;;;9.10;8.20;;;7.30;99.90;;;;;;5021185;28;20803;-79
2024/02/18 01:02:29;;;;;;;9.65;8.65;;;7.60;99.90;;;;;;5039302;28;20463;-82
2024/02/18 01:04:58;;;;;;;11.60;8.13;;;7.30;99.90;;;;;;5041872;28;20396;-80
2024/02/18 01:07:24;;;;;;;10.02;8.45;;;7.20;99.90;;;;;;5058798;28;20382;-80
2024/02/18 01:09:50;;;;;;;10.03;8.93;;;7.20;99.90;;;;;;5029001;28;20384;-81
2024/02/18 01:12:16;;;;;;;12.10;9.05;;;7.10;99.90;;;;;;5018920;28;20395;-81
2024/02/18 01:14:45;;;;;;;11.68;8.90;;;7.10;99.90;;;;;;5037309;28;20383;-81
2024/02/18 01:17:11;;;;;;;11.55;8.50;;;7.10;99.90;;;;;;5038306;28;20464;-81
2024/02/18 01:19:36;;;;;;;12.02;8.73;;;7.10;99.90;;;;;;5047618;28;20405;-80
2024/02/18 01:22:04;;;;;;;10.65;8.73;;;7.10;99.90;;;;;;5050355;28;20387;-81
2024/02/18 01:24:30;;;;;;;9.95;8.55;;;7.10;99.90;;;;;;5019345;28;20411;-81
2024/02/18 01:26:56;;;;;;;11.45;8.95;;;7.10;99.90;;;;;;5037375;28;20432;-81
2024/02/18 01:29:22;;;;;;;12.90;9.15;;;7.10;99.90;;;;;;5030489;28;20445;-79
2024/02/18 01:31:48;;;;;;;9.15;8.25;;;7.10;99.90;;;;;;5020031;28;20779;-81
2024/02/18 01:34:13;;;;;;;8.80;7.90;;;7.10;99.90;;;;;;5050500;28;20405;-81
2024/02/18 01:36:39;;;;;;;9.40;8.40;;;7.10;99.90;;;;;;5058287;28;20440;-81
2024/02/18 01:39:04;;;;;;;9.90;8.47;;;7.00;99.90;;;;;;5069260;28;20448;-80
2024/02/18 01:41:30;;;;;;;9.50;7.87;;;7.40;99.90;;;;;;5070078;28;20584;-80
2024/02/18 01:43:56;;;;;;;9.48;8.45;;;7.10;99.90;;;;;;5071137;28;20378;-80
2024/02/18 01:46:21;;;;;;;9.63;8.52;;;7.20;99.90;;;;;;5061034;28;20480;-80
2024/02/18 01:48:47;;;;;;;8.23;7.43;;;7.20;99.90;;;;;;5059230;28;20424;-81
2024/02/18 01:51:14;;;;;;;10.02;7.68;;;7.20;99.90;;;;;;5042007;28;20413;-80
2024/02/18 01:53:40;;;;;;;7.75;7.05;;;7.10;99.90;;;;;;5023127;28;20388;-80
2024/02/18 01:56:07;;;;;;;8.37;7.10;;;7.10;99.90;;;;;;5039357;28;20418;-81
2024/02/18 01:58:34;;;;;;;8.95;7.90;;;7.00;99.90;;;;;;5058294;28;20393;-82
2024/02/18 02:00:59;;;;;;;8.13;6.85;;;7.00;99.90;;;;;;5043978;28;20953;-81
2024/02/18 02:03:26;;;;;;;8.07;7.37;;;7.00;99.90;;;;;;5046090;28;20385;-82
2024/02/18 02:05:54;;;;;;;8.55;7.28;;;7.00;99.90;;;;;;5071553;28;20402;-81
2024/02/18 02:08:21;;;;;;;7.50;6.80;;;6.90;99.90;;;;;;5037116;28;20437;-80
2024/02/18 02:10:47;;;;;;;8.43;6.80;;;6.80;99.90;;;;;;5035633;28;20399;-80
2024/02/18 02:13:12;;;;;;;7.45;6.75;;;6.90;99.90;;;;;;5052428;28;20390;-79
2024/02/18 02:15:38;;;;;;;7.55;6.85;;;6.90;99.90;;;;;;5037735;28;20403;-80
2024/02/18 02:18:04;;;;;;;8.57;7.50;;;6.90;99.90;;;;;;5018614;28;20917;-80
2024/02/18 02:20:29;;;;;;;8.75;7.07;;;7.10;99.90;;;;;;5034581;28;20389;-80
2024/02/18 02:22:55;;;;;;;9.05;7.55;;;7.00;99.90;;;;;;5054690;28;20382;-81
2024/02/18 02:25:21;;;;;;;9.70;8.10;;;6.90;99.90;;;;;;5053405;28;20406;-82
2024/02/18 02:27:57;;;;;;;8.85;7.88;;;7.10;99.90;;;;;;5050394;28;20399;-81
2024/02/18 02:30:22;;;;;;;8.60;7.50;;;7.10;99.90;;;;;;5042577;28;20463;-82
2024/02/18 02:32:48;;;;;;;8.48;7.30;;;7.30;99.90;;;;;;5060745;28;20398;-80
2024/02/18 02:35:13;;;;;;;8.70;7.80;;;7.10;99.90;;;;;;5040353;28;20835;-82
2024/02/18 02:37:39;;;;;;;8.40;7.40;;;7.10;99.90;;;;;;5033621;28;20756;-81
2024/02/18 02:40:05;;;;;;;8.68;7.10;;;7.20;99.90;;;;;;5060975;28;20381;-81
2024/02/18 02:42:32;;;;;;;7.90;6.25;;;7.20;99.90;;;;;;5060909;28;20857;-81
2024/02/18 02:44:58;;;;;;;8.07;6.70;;;7.10;99.90;;;;;;5061239;28;20397;-80
2024/02/18 02:47:23;;;;;;;10.30;7.10;;;7.00;99.90;;;;;;5059707;28;20400;-80
2024/02/18 02:49:49;;;;;;;11.13;7.35;;;7.20;99.90;;;;;;5031644;28;20383;-82
2024/02/18 02:52:14;;;;;;;8.10;7.30;;;7.00;99.90;;;;;;5042538;28;20455;-81
2024/02/18 02:54:40;;;;;;;7.80;7.00;;;7.10;99.90;;;;;;5042307;28;20410;-80
2024/02/18 02:57:06;;;;;;;8.30;7.40;;;7.10;99.90;;;;;;5022721;28;20482;-81
2024/02/18 02:59:31;;;;;;;8.90;7.70;;;7.00;99.90;;;;;;5051758;28;20393;-81
2024/02/18 03:01:57;;;;;;;8.90;8.00;;;7.10;99.90;;;;;;5024722;28;20474;-81
2024/02/18 03:04:22;;;;;;;9.10;7.87;;;6.80;99.90;;;;;;5021471;28;20970;-80
2024/02/18 03:06:48;;;;;;;8.20;7.40;;;6.90;99.90;;;;;;5041820;28;20420;-81
2024/02/18 03:09:13;;;;;;;8.95;8.02;;;6.90;99.90;;;;;;5022172;28;20500;-81
2024/02/18 03:11:39;;;;;;;9.70;8.43;;;6.50;99.90;;;;;;5024873;28;20478;-81
2024/02/18 03:14:04;;;;;;;9.70;8.30;;;6.80;99.90;;;;;;5034861;28;20455;-81
2024/02/18 03:16:30;;;;;;;8.57;7.78;;;6.80;99.90;;;;;;5041383;28;20459;-82
2024/02/18 03:18:56;;;;;;;8.35;7.45;;;6.60;99.90;;;;;;5043120;28;20389;-82
2024/02/18 03:21:23;;;;;;;9.40;8.20;;;6.60;99.90;;;;;;5040959;28;20378;-81
2024/02/18 03:23:49;;;;;;;10.20;8.85;;;6.60;99.90;;;;;;5038269;28;20392;-81
2024/02/18 03:26:14;;;;;;;9.80;7.50;;;6.50;99.90;;;;;;5047202;28;20451;-80
2024/02/18 03:28:40;;;;;;;10.30;8.40;;;5.70;99.90;;;;;;5040718;28;20494;-81
2024/02/18 03:31:05;;;;;;;9.70;8.23;;;6.90;99.90;;;;;;5040147;28;20426;-81
2024/02/18 03:33:31;;;;;;;10.30;8.43;;;6.40;99.90;;;;;;5040630;28;20401;-82
2024/02/18 03:35:56;;;;;;;9.82;8.45;;;6.40;99.90;;;;;;5073865;28;20423;-80
2024/02/18 03:38:22;;;;;;;9.02;7.82;;;6.40;99.90;;;;;;5076906;28;20413;-81
2024/02/18 03:40:48;;;;;;;11.20;8.35;;;6.50;99.90;;;;;;5057638;28;20393;-79
2024/02/18 03:43:13;;;;;;;9.40;8.37;;;6.40;99.90;;;;;;5060219;28;20443;-81
2024/02/18 03:45:39;;;;;;;8.00;7.20;;;6.30;99.90;;;;;;5055993;28;20391;-81
2024/02/18 03:48:05;;;;;;;8.98;8.07;;;6.30;99.90;;;;;;5022202;28;20410;-81
2024/02/18 03:50:31;;;;;;;10.30;7.60;;;6.20;99.90;;;;;;5040349;28;20391;-80
2024/02/18 03:52:56;;;;;;;8.90;7.43;;;6.10;99.90;;;;;;5041168;28;20399;-82
2024/02/18 03:55:22;;;;;;;8.83;7.93;;;6.20;99.90;;;;;;5021552;28;20456;-81
2024/02/18 03:57:48;;;;;;;8.02;7.22;;;6.20;99.90;;;;;;5021762;28;20441;-80
2024/02/18 04:00:13;;;;;;;8.30;7.40;;;6.10;99.90;;;;;;5021193;28;20388;-81
2024/02/18 04:02:40;;;;;;;10.18;7.55;;;6.10;99.90;;;;;;5046660;28;20394;-80
2024/02/18 04:05:10;;;;;;;9.60;7.07;;;6.30;99.90;;;;;;5042956;28;20528;-81
2024/02/18 04:07:36;;;;;;;9.43;7.60;;;6.10;99.90;;;;;;5041738;28;20411;-81
2024/02/18 04:10:03;;;;;;;11.07;8.15;;;6.00;99.90;;;;;;5042372;28;20426;-80
2024/02/18 04:12:30;;;;;;;10.15;8.38;;;5.90;99.90;;;;;;5043086;28;20455;-81
2024/02/18 04:14:55;;;;;;;9.70;8.70;;;7.20;99.90;;;;;;5049259;28;20394;-80
2024/02/18 04:17:21;;;;;;;11.40;8.80;;;6.10;99.90;;;;;;5022521;28;20399;-82
2024/02/18 04:19:47;;;;;;;12.68;9.50;;;5.90;99.90;;;;;;5057023;28;21043;-81
2024/02/18 04:22:12;;;;;;;11.93;9.43;;;5.90;99.90;;;;;;5061703;28;20449;-82
2024/02/18 04:24:42;;;;;;;11.15;9.00;;;5.90;99.90;;;;;;5041491;28;20401;-82
2024/02/18 04:27:11;;;;;;;10.50;9.40;;;5.90;99.90;;;;;;5021103;28;20391;-81
2024/02/18 04:29:37;;;;;;;15.00;9.45;;;5.90;99.90;;;;;;5020400;28;20398;-81
2024/02/18 04:32:04;;;;;;;15.40;9.13;;;5.80;99.90;;;;;;5133927;23;20410;-81
2024/02/18 04:34:30;;;;;;;11.55;9.77;;;5.80;99.90;;;;;;5105263;28;20394;-80
2024/02/18 04:36:55;;;;;;;12.68;10.70;;;5.70;99.90;;;;;;5080596;28;20410;-81
2024/02/18 04:39:21;;;;;;;10.20;8.85;;;5.70;99.90;;;;;;5079973;28;20486;-81
2024/02/18 04:41:46;;;;;;;11.10;9.50;;;5.70;99.90;;;;;;5063822;28;20393;-81
2024/02/18 04:44:12;;;;;;;11.13;9.07;;;5.80;99.90;;;;;;5059612;28;20415;-80
2024/02/18 04:46:38;;;;;;;9.50;8.50;;;5.70;99.90;;;;;;5066175;28;20801;-80
2024/02/18 04:49:04;;;;;;;11.38;9.27;;;5.70;99.90;;;;;;5059328;28;20473;-82
2024/02/18 04:51:29;;;;;;;10.32;9.23;;;5.70;99.90;;;;;;5063403;28;20445;-81
2024/02/18 04:53:55;;;;;;;10.35;8.82;;;5.70;99.90;;;;;;5079115;28;20388;-82
2024/02/18 04:56:21;;;;;;;11.93;9.73;;;5.70;99.90;;;;;;5080126;28;20424;-80
2024/02/18 04:58:46;;;;;;;10.10;8.98;;;5.60;99.90;;;;;;5078963;28;20391;-80
2024/02/18 05:01:12;;;;;;;10.18;8.45;;;5.70;99.90;;;;;;5062138;28;20394;-80
2024/02/18 05:03:40;;;;;;;10.18;8.32;;;5.70;99.90;;;;;;5060554;28;20890;-81
2024/02/18 05:06:09;;;;;;;10.30;9.20;;;5.80;99.90;;;;;;5058216;28;20397;-80
2024/02/18 05:08:35;;;;;;;12.60;9.48;;;5.80;99.90;;;;;;5069150;28;20526;-80
2024/02/18 05:11:01;;;;;;;10.43;9.05;;;5.80;99.90;;;;;;5080158;28;20388;-81
2024/02/18 05:13:26;;;;;;;11.38;8.70;;;5.80;99.90;;;;;;5078169;28;20388;-81
2024/02/18 05:15:52;;;;;;;10.63;8.60;;;5.80;99.90;;;;;;5078213;28;20407;-81
2024/02/18 05:18:18;;;;;;;11.55;9.30;;;5.80;99.90;;;;;;5075574;28;20416;-81
2024/02/18 05:20:44;;;;;;;11.98;9.50;;;5.90;99.90;;;;;;5079100;28;20376;-81
2024/02/18 05:23:11;;;;;;;10.60;9.20;;;5.90;99.90;;;;;;5079941;28;20398;-79
2024/02/18 05:25:38;;;;;;;11.10;9.20;;;5.90;99.90;;;;;;5082240;28;20411;-79
2024/02/18 05:28:07;;;;;;;10.15;8.07;;;5.90;99.90;;;;;;5078581;28;20403;-78
2024/02/18 05:30:33;;;;;;;8.20;7.40;;;6.00;99.90;;;;;;5082906;28;20387;-80
2024/02/18 05:32:58;;;;;;;8.63;7.63;;;5.90;99.90;;;;;;5077994;28;20431;-81
2024/02/18 05:35:24;;;;;;;9.60;8.60;;;5.90;99.90;;;;;;5082485;28;20425;-79
2024/02/18 05:37:50;;;;;;;8.97;7.70;;;6.00;99.90;;;;;;5084636;28;20392;-81
2024/02/18 05:40:16;;;;;;;8.55;7.65;;;5.90;99.90;;;;;;5085233;28;20415;-81
2024/02/18 05:42:41;;;;;;;9.77;7.93;;;6.00;99.90;;;;;;5078094;28;20385;-81
2024/02/18 05:45:07;;;;;;;8.80;7.70;;;6.00;99.90;;;;;;5061045;28;20399;-80
2024/02/18 05:47:33;;;;;;;8.05;7.05;;;5.90;99.90;;;;;;5064436;28;20422;-80
2024/02/18 05:49:58;;;;;;;9.20;7.82;;;5.90;99.90;;;;;;5062408;28;20390;-81
2024/02/18 05:52:24;;;;;;;8.47;7.60;;;5.60;99.90;;;;;;5063344;28;20751;-81
2024/02/18 05:54:49;;;;;;;8.63;7.77;;;5.80;99.90;;;;;;5063082;28;20881;-80
2024/02/18 05:57:15;;;;;;;8.60;7.67;;;5.70;99.90;;;;;;5081928;28;20430;-80
2024/02/18 05:59:41;;;;;;;8.93;7.57;;;5.70;99.90;;;;;;5081091;28;20417;-80
2024/02/18 06:02:06;;;;;;;9.20;8.20;;;5.70;99.90;;;;;;5088732;28;20460;-80
2024/02/18 06:04:32;;;;;;;8.68;7.57;;;5.60;99.90;;;;;;5083440;28;20756;-81
2024/02/18 06:06:58;;;;;;;8.80;7.70;;;5.70;99.90;;;;;;5078681;28;20403;-81
2024/02/18 06:09:23;;;;;;;10.27;8.30;;;5.70;99.90;;;;;;5072254;28;20404;-80
2024/02/18 06:11:51;;;;;;;9.50;7.97;;;5.60;99.90;;;;;;5066378;28;20778;-80
2024/02/18 06:14:17;;;;;;;8.63;7.82;;;5.50;99.90;;;;;;5080976;28;20394;-81
2024/02/18 06:16:43;;;;;;;10.97;8.60;;;5.60;99.90;;;;;;5082666;28;20846;-81
2024/02/18 06:19:09;;;;;;;10.33;8.30;;;5.90;99.90;;;;;;5082228;28;20391;-81
2024/02/18 06:21:34;;;;;;;10.57;8.90;;;5.60;99.90;;;;;;5081072;28;20482;-81
2024/02/18 06:24:01;;;;;;;10.23;8.90;;;5.60;99.90;;;;;;5080883;28;20379;-80
2024/02/18 06:26:27;;;;;;;12.77;8.75;;;5.50;99.90;;;;;;5067593;28;20420;-81
2024/02/18 06:28:53;;;;;;;10.68;9.57;;;7.10;99.90;;;;;;5062098;28;20420;-81
2024/02/18 06:31:18;;;;;;;10.32;8.80;;;5.40;99.90;;;;;;5060251;28;20801;-82
2024/02/18 06:33:47;;;;;;;9.25;8.10;;;5.40;99.90;;;;;;5061049;28;20393;-81
2024/02/18 06:36:13;;;;;;;9.82;8.40;;;5.30;99.90;;;;;;5059741;28;20882;-81
2024/02/18 06:38:42;;;;;;;9.55;8.32;;;5.40;99.90;;;;;;5062131;28;20413;-81
2024/02/18 06:41:08;;;;;;;9.10;8.20;;;5.40;99.90;;;;;;5060054;28;20757;-84
2024/02/18 06:43:34;;;;;;;9.30;7.57;;;5.40;99.90;;;;;;5062255;28;20377;-80
2024/02/18 06:45:59;;;;;;;9.30;7.90;;;5.40;99.90;;;;;;5081136;28;20478;-79
2024/02/18 06:48:25;;;;;;;9.30;8.05;;;5.30;99.90;;;;;;5083420;28;20396;-81
2024/02/18 06:50:50;;;;;;;8.48;7.57;;;5.20;99.90;;;;;;5081686;28;20505;-81
2024/02/18 06:53:16;;;;;;;10.27;8.73;;;5.20;99.90;;;;;;5082276;28;20482;-80
2024/02/18 06:55:42;;;;;;;10.70;9.23;;;5.30;99.90;;;;;;5078092;28;20431;-80
2024/02/18 06:58:08;;;;;;;9.40;8.40;;;5.40;99.90;;;;;;5078221;28;20466;-79
2024/02/18 07:00:34;;;;;;;10.55;8.93;;;5.30;99.90;;;;;;5077893;28;20411;-80
2024/02/18 07:03:00;;;;;;;9.37;8.43;;;5.50;99.90;;;;;;5093273;28;20395;-81
2024/02/18 07:05:25;;;;;;;11.80;9.20;;;5.50;99.90;;;;;;5078470;28;20384;-81
2024/02/18 07:07:51;;;;;;;10.50;9.03;;;5.60;99.90;;;;;;5079196;28;20415;-80
2024/02/18 07:10:16;;;;;;;9.80;8.47;;;5.50;99.90;;;;;;5079239;28;20384;-80
2024/02/18 07:12:42;;;;;;;9.30;8.30;;;5.60;99.90;;;;;;5064334;28;20397;-80
2024/02/18 07:15:08;;;;;;;9.63;8.40;;;5.60;99.90;;;;;;5064546;28;20415;-81
2024/02/18 07:17:33;;;;;;;8.63;7.63;;;5.60;99.90;;;;;;5063654;28;20422;-81
2024/02/18 07:19:59;;;;;;;9.35;8.35;;;5.70;99.90;;;;;;5081121;28;20781;-80
2024/02/18 07:22:26;;;;;;;10.02;8.55;;;5.60;99.90;;;;;;5081566;28;20388;-81
2024/02/18 07:24:51;;;;;;;9.52;8.30;;;5.70;99.90;;;;;;5082611;28;20744;-80
2024/02/18 07:27:17;;;;;;;9.43;8.10;;;5.70;99.90;;;;;;5064711;28;20397;-81
2024/02/18 07:29:42;;;;;;;10.20;8.25;;;5.90;99.90;;;;;;5063345;28;20389;-80
2024/02/18 07:32:08;;;;;;;9.40;7.70;;;5.90;99.90;;;;;;5064046;28;20420;-81
2024/02/18 07:34:34;;;;;;;10.43;7.90;;;6.00;99.90;;;;;;5066507;28;20393;-80
2024/02/18 07:36:59;;;;;;;8.67;7.80;;;6.10;99.90;;;;;;5080969;28;20415;-81
2024/02/18 07:39:26;;;;;;;9.80;7.90;;;6.40;99.90;;;;;;5084142;28;20466;-79
2024/02/18 07:41:53;;;;;;;11.00;8.30;;;6.60;99.90;;;;;;5083782;28;20387;-81
2024/02/18 07:44:18;;;;;;;9.40;7.70;;;7.80;99.90;;;;;;5084994;28;20388;-80
2024/02/18 07:46:45;;;;;;;8.20;7.40;;;6.80;99.90;;;;;;5091437;28;20390;-80
2024/02/18 07:49:13;;;;;;;8.15;7.00;;;7.00;99.90;;;;;;5090099;28;20521;-79
2024/02/18 07:51:38;;;;;;;9.83;8.17;;;7.00;99.90;;;;;;5087555;28;20402;-81
2024/02/18 07:54:04;;;;;;;9.07;8.17;;;7.10;99.90;;;;;;5081363;28;20400;-81
2024/02/18 07:56:29;;;;;;;9.30;8.00;;;7.50;99.90;;;;;;5084272;28;20435;-80
2024/02/18 07:58:55;;;;;;;9.00;8.10;;;7.20;99.90;;;;;;5086064;28;20383;-80
2024/02/18 08:01:20;;;;;;;9.50;8.50;;;7.30;99.90;;;;;;5083730;28;20760;-81
2024/02/18 08:03:46;;;;;;;10.87;8.60;;;7.50;99.90;;;;;;5073132;28;20381;-81
2024/02/18 08:06:11;;;;;;;9.50;8.60;;;7.60;99.90;;;;;;5067438;28;20404;-80
2024/02/18 08:08:37;;;;;;;9.13;8.23;;;7.70;99.90;;;;;;5077234;28;20392;-79
2024/02/18 08:11:03;;;;;;;9.40;8.13;;;7.80;99.90;;;;;;5090627;28;20463;-80
2024/02/18 08:13:28;;;;;;;8.70;7.82;;;7.80;99.90;;;;;;5092772;28;20455;-80
2024/02/18 08:15:56;;;;;;;8.88;7.97;;;7.70;99.90;;;;;;5081084;28;20421;-81
2024/02/18 08:18:21;;;;;;;10.18;8.30;;;7.90;99.90;;;;;;5069031;28;20397;-80
2024/02/18 08:20:47;;;;;;;9.30;8.40;;;8.00;99.90;;;;;;5071927;28;20394;-78
2024/02/18 08:23:12;;;;;;;9.90;8.90;;;8.10;99.90;;;;;;5070310;28;20389;-81
2024/02/18 08:25:38;;;;;;;10.37;8.33;;;8.50;99.90;;;;;;5071242;28;20903;-80
2024/02/18 08:28:04;;;;;;;10.20;9.15;;;8.20;99.90;;;;;;5084108;28;20413;-79
2024/02/18 08:30:29;;;;;;;9.85;8.88;;;8.20;99.90;;;;;;5084893;28;20384;-80
2024/02/18 08:32:55;;;;;;;10.68;9.25;;;8.20;99.90;;;;;;5080056;28;21429;-81
2024/02/18 08:35:21;;;;;;;9.65;8.65;;;8.40;99.90;;;;;;5063085;28;20390;-81
2024/02/18 08:37:49;;;;;;;9.60;8.60;;;8.40;99.90;;;;;;5065886;28;20458;-81
2024/02/18 08:40:15;;;;;;;9.80;8.80;;;8.30;99.90;;;;;;5065017;28;20527;-81
2024/02/18 08:42:41;;;;;;;10.32;8.73;;;8.60;99.90;;;;;;5076448;28;20965;-81
2024/02/18 08:45:08;;;;;;;10.20;9.07;;;8.60;99.90;;;;;;5082823;28;20379;-80
2024/02/18 08:47:34;;;;;;;10.60;9.50;;;8.50;99.90;;;;;;5084684;28;20379;-81
2024/02/18 08:50:00;;;;;;;9.88;8.45;;;8.50;99.90;;;;;;5081386;28;20388;-80
2024/02/18 08:52:25;;;;;;;9.32;8.43;;;8.70;99.90;;;;;;5067539;28;20424;-81
2024/02/18 08:54:51;;;;;;;10.87;9.33;;;8.70;99.90;;;;;;5064644;28;20457;-80
2024/02/18 08:57:16;;;;;;;8.67;7.77;;;8.70;99.90;;;;;;5063543;28;20401;-80
2024/02/18 08:59:42;;;;;;;9.10;8.20;;;9.00;99.90;;;;;;5081116;28;20410;-80
2024/02/18 09:02:08;;;;;;;9.50;8.15;;;8.80;99.90;;;;;;5082632;28;20819;-80
2024/02/18 09:04:33;;;;;;;8.87;7.97;;;8.60;99.90;;;;;;5073074;28;20392;-81
2024/02/18 09:06:59;;;;;;;9.63;8.68;;;8.80;99.90;;;;;;5059448;28;20389;-81
2024/02/18 09:09:25;;;;;;;9.60;8.40;;;9.00;99.90;;;;;;5060335;28;20386;-81
2024/02/18 09:11:50;;;;;;;9.95;8.60;;;8.90;99.90;;;;;;5059140;28;20394;-80
2024/02/18 09:14:16;;;;;;;10.75;9.18;;;8.90;99.90;;;;;;5061834;28;20404;-80
2024/02/18 09:16:41;;;;;;;9.83;8.80;;;8.90;99.90;;;;;;5078416;28;20400;-81
2024/02/18 09:19:07;;;;;;;10.80;9.70;;;9.00;99.90;;;;;;5080253;28;20399;-81
2024/02/18 09:21:32;;;;;;;11.03;9.93;;;9.00;99.90;;;;;;5079053;28;20422;-81
2024/02/18 09:23:58;;;;;;;13.05;11.65;;;9.00;99.90;;;;;;5079472;28;20771;-81
2024/02/18 09:26:25;;;;;;;13.60;12.20;;;9.10;99.90;;;;;;5072193;28;20378;-77
2024/02/18 09:28:51;;;;;;;13.80;12.32;;;9.10;99.90;;;;;;5077582;28;20405;-79
2024/02/18 09:31:17;;;;;;;14.82;13.13;;;8.90;99.90;;;;;;5077016;28;20385;-83
2024/02/18 09:33:43;;;;;;;19.15;15.55;;;10.70;99.90;;;;;;5063770;28;20416;-83
2024/02/18 09:36:09;;;;;;;20.60;17.80;;;9.00;99.90;;;;;;5074044;28;20409;-82
2024/02/18 09:38:36;;;;;;;26.92;21.20;;;9.00;99.90;;;;;;5081372;28;20393;-84
2024/02/18 09:41:03;;;;;;;27.80;20.33;;;9.20;99.90;;;;;;5076973;28;20388;-85
2024/02/18 09:43:38;;;;;;;25.80;20.90;;;9.10;99.90;;;;;;5071095;28;20399;-84
2024/02/18 09:46:05;;;;;;;28.10;21.73;;;8.90;99.90;;;;;;5066495;28;20395;-87
2024/02/18 09:48:32;;;;;;;27.00;21.17;;;9.00;99.90;;;;;;5063226;28;20389;-84
2024/02/18 09:50:58;;;;;;;23.00;20.50;;;9.10;99.90;;;;;;5061459;28;20392;-84
2024/02/18 09:53:25;;;;;;;25.15;19.85;;;10.60;99.90;;;;;;5061408;28;20439;-85
2024/02/18 09:55:51;;;;;;;25.58;18.30;;;9.20;99.90;;;;;;5072277;28;20845;-84
2024/02/18 09:58:19;;;;;;;20.80;18.33;;;9.50;99.90;;;;;;5080261;28;20444;-83
2024/02/18 10:00:45;;;;;;;21.55;17.98;;;9.40;99.90;;;;;;5079344;28;20383;-85
2024/02/18 10:03:10;;;;;;;25.77;19.30;;;9.50;99.90;;;;;;5076273;28;20381;-86
2024/02/18 10:05:36;;;;;;;23.50;20.10;;;9.70;99.90;;;;;;5066288;28;20400;-86
2024/02/18 10:08:02;;;;;;;21.70;19.10;;;9.70;99.90;;;;;;5060408;28;20389;-85
2024/02/18 10:10:35;;;;;;;23.17;20.25;;;9.90;99.90;;;;;;5066949;28;20408;-86
2024/02/18 10:13:02;;;;;;;23.17;20.20;;;9.80;99.90;;;;;;5073811;28;20396;-85
2024/02/18 10:15:28;;;;;;;24.50;21.52;;;9.80;99.90;;;;;;5080504;28;20391;-85
2024/02/18 10:17:53;;;;;;;24.90;21.25;;;9.60;99.90;;;;;;5059520;28;20845;-84
2024/02/18 10:20:19;;;;;;;26.58;22.40;;;10.10;99.90;;;;;;5081485;28;20377;-83
2024/02/18 10:22:44;;;;;;;27.23;22.30;;;9.80;99.90;;;;;;5071825;28;20413;-83
2024/02/18 10:25:10;;;;;;;28.70;22.97;;;9.80;99.90;;;;;;5073722;28;20375;-83
2024/02/18 10:27:39;;;;;;;29.45;23.67;;;10.00;99.90;;;;;;5086849;28;20388;-85
2024/02/18 10:30:09;;;;;;;28.00;23.00;;;10.00;99.90;;;;;;5084791;28;20922;-85
2024/02/18 10:32:34;;;;;;;26.40;21.55;;;10.10;99.90;;;;;;5111726;22;20431;-82
2024/02/18 10:35:04;;;;;;;27.77;22.40;;;9.90;99.90;;;;;;5074573;28;20484;-81
2024/02/18 10:37:38;;;;;;;28.27;22.88;;;10.20;99.90;;;;;;5064394;28;20877;-81
2024/02/18 10:40:30;;;;;;;25.93;21.80;;;10.10;99.90;;;;;;5055462;28;20819;-81
2024/02/18 10:43:02;;;;;;;26.63;22.58;;;10.10;99.90;;;;;;5035899;28;20899;-81
2024/02/18 10:45:28;;;;;;;26.58;21.67;;;10.40;99.90;;;;;;5036596;28;20394;-81
2024/02/18 10:47:56;;;;;;;24.33;21.63;;;10.10;99.90;;;;;;5037883;28;20418;-81
2024/02/18 10:50:24;;;;;;;24.10;21.03;;;10.30;99.90;;;;;;5039061;28;20402;-82
2024/02/18 10:52:59;;;;;;;25.48;21.08;;;10.20;99.90;;;;;;5038856;28;20441;-82
2024/02/18 10:55:31;;;;;;;24.93;21.87;;;10.60;99.90;;;;;;5045501;28;20394;-82
2024/02/18 10:58:24;;;;;;;25.60;21.37;;;10.40;99.90;;;;;;5059651;28;20435;-82
2024/02/18 11:00:54;;;;;;;22.98;20.50;;;10.70;99.90;;;;;;5058398;28;20586;-81
2024/02/18 11:03:44;;;;;;;22.25;19.80;;;10.90;99.90;;;;;;5057362;28;20929;-81
2024/02/18 11:06:10;;;;;;;24.13;20.02;;;11.00;99.90;;;;;;5041316;28;20453;-79
2024/02/18 11:08:39;;;;;;;21.30;19.10;;;10.40;99.90;;;;;;5040266;28;20403;-81
2024/02/18 11:11:06;;;;;;;22.35;19.75;;;10.80;99.90;;;;;;5040562;28;20411;-81
2024/02/18 11:13:34;;;;;;;24.15;20.73;;;10.80;99.90;;;;;;5045663;28;20395;-79
2024/02/18 11:16:01;;;;;;;23.40;19.92;;;11.00;99.90;;;;;;5044653;28;20417;-81
2024/02/18 11:18:28;;;;;;;22.40;20.00;;;11.00;99.90;;;;;;5042998;28;20469;-80
2024/02/18 11:20:54;;;;;;;23.25;20.73;;;11.30;99.90;;;;;;5049291;28;20400;-82
2024/02/18 11:23:20;;;;;;;21.80;19.50;;;11.20;99.90;;;;;;5064288;28;20385;-81
2024/02/18 11:25:46;;;;;;;23.25;19.77;;;11.90;99.90;;;;;;5053190;28;20924;-81
2024/02/18 11:28:12;;;;;;;22.63;18.83;;;11.40;99.90;;;;;;5060422;28;20416;-81
2024/02/18 11:30:38;;;;;;;23.48;19.88;;;11.60;99.90;;;;;;5062173;28;20402;-80
2024/02/18 11:33:05;;;;;;;21.83;19.50;;;11.50;99.90;;;;;;5060459;28;20411;-82
2024/02/18 11:35:30;;;;;;;22.50;19.63;;;11.50;99.90;;;;;;5060887;28;20385;-82
2024/02/18 11:37:57;;;;;;;21.70;18.97;;;11.70;99.90;;;;;;5057066;28;20416;-80
2024/02/18 11:40:23;;;;;;;21.45;18.42;;;11.70;99.90;;;;;;5057926;28;20757;-81
2024/02/18 11:42:49;;;;;;;19.97;17.97;;;11.80;99.90;;;;;;5050737;28;20390;-80
2024/02/18 11:45:23;;;;;;;19.70;17.80;;;12.10;99.90;;;;;;5047328;28;20391;-82
2024/02/18 11:47:50;;;;;;;19.42;17.33;;;12.00;99.90;;;;;;5039478;28;20387;-81
2024/02/18 11:50:17;;;;;;;21.40;17.85;;;12.00;99.90;;;;;;5037786;28;20398;-80
2024/02/18 11:52:44;;;;;;;21.80;17.50;;;12.30;99.90;;;;;;5048622;28;20457;-80
2024/02/18 11:55:21;;;;;;;19.35;17.35;;;12.40;99.90;;;;;;5057589;28;20385;-82
2024/02/18 11:57:48;;;;;;;19.70;17.60;;;12.40;99.90;;;;;;5044623;28;20399;-80
2024/02/18 12:00:16;;;;;;;23.08;19.00;;;12.30;99.90;;;;;;5044237;28;20376;-80
2024/02/18 12:02:48;;;;;;;19.85;17.50;;;12.20;99.90;;;;;;5044266;28;20379;-81
2024/02/18 12:05:14;;;;;;;21.00;18.27;;;12.10;99.90;;;;;;5041014;28;20386;-82
2024/02/18 12:07:40;;;;;;;22.20;19.45;;;12.30;99.90;;;;;;5050658;28;20385;-83
2024/02/18 12:10:06;;;;;;;20.95;18.33;;;12.40;99.90;;;;;;5057020;28;20396;-81
2024/02/18 12:12:32;;;;;;;21.45;18.42;;;12.20;99.90;;;;;;5055736;28;20397;-80
2024/02/18 12:14:59;;;;;;;21.83;18.93;;;11.60;99.90;;;;;;5057507;28;20385;-81
2024/02/18 12:17:25;;;;;;;20.60;17.83;;;11.60;99.90;;;;;;5056636;28;20402;-80
2024/02/18 12:19:51;;;;;;;21.65;18.33;;;11.90;99.90;;;;;;5039037;28;20970;-82
2024/02/18 12:22:24;;;;;;;20.10;17.98;;;12.10;99.90;;;;;;5038163;28;20417;-81
2024/02/18 12:24:51;;;;;;;20.33;17.15;;;12.30;99.90;;;;;;5043129;28;20389;-82
2024/02/18 12:27:18;;;;;;;19.90;17.17;;;12.30;99.90;;;;;;5037745;28;20387;-81
2024/02/18 12:29:49;;;;;;;19.00;17.00;;;12.10;99.90;;;;;;5044588;28;20395;-81
2024/02/18 12:32:17;;;;;;;18.67;16.70;;;12.20;99.90;;;;;;5046416;28;20436;-81
2024/02/18 12:34:47;;;;;;;17.70;15.88;;;12.30;99.90;;;;;;5050848;28;20389;-80
2024/02/18 12:37:13;;;;;;;19.10;16.40;;;12.50;99.90;;;;;;5059831;28;20397;-82
2024/02/18 12:39:39;;;;;;;17.83;16.02;;;12.50;99.90;;;;;;5047952;28;20421;-81
2024/02/18 12:42:05;;;;;;;18.75;16.20;;;12.40;99.90;;;;;;5037675;28;20381;-82
2024/02/18 12:44:32;;;;;;;20.30;16.23;;;12.40;99.90;;;;;;5037324;28;20421;-80